sensor_id;sensor_type;location;lat;lon;timestamp;temperature;humidity
30534;DHT22;17318;52.390;9.754;2023-07-24T00:00:29;20.40;99.90
30534;DHT22;17318;52.390;9.754;2023-07-24T00:02:55;20.30;99.90
30534;DHT22;17318;52.390;9.754;2023-07-24T00:05:21;20.30;99.90
30534;DHT22;17318;52.390;9.754;2023-07-24T00:07:47;20.30;99.90
30534;DHT22;17318;52.390;9.754;2023-07-24T00:10:13;20.30;99.90
30534;DHT22;17318;52.390;9.754;2023-07-24T00:12:38;20.20;99.90
30534;DHT22;17318;52.390;9.754;2023-07-24T00:15:04;20.30;99.90
30534;DHT22;17318;52.390;9.754;2023-07-24T00:17:30;20.20;99.90
30534;DHT22;17318;52.390;9.754;2023-07-24T00:19:56;20.30;99.90
30534;DHT22;17318;52.390;9.754;2023-07-24T00:22:21;20.30;99.90
30534;DHT22;17318;52.390;9.754;2023-07-24T00:24:47;20.20;99.90
30534;DHT22;17318;52.390;9.754;2023-07-24T00:27:12;20.10;99.90
30534;DHT22;17318;52.390;9.754;2023-07-24T00:29:39;20.20;99.90
30534;DHT22;17318;52.390;9.754;2023-07-24T00:32:05;20.20;99.90
30534;DHT22;17318;52.390;9.754;2023-07-24T00:34:31;20.20;99.90
30534;DHT22;17318;52.390;9.754;2023-07-24T00:36:56;20.20;99.90
30534;DHT22;17318;52.390;9.754;2023-07-24T00:39:22;20.20;99.90
30534;DHT22;17318;52.390;9.754;2023-07-24T00:41:48;20.10;99.90
30534;DHT22;17318;52.390;9.754;2023-07-24T00:44:13;20.10;99.90
30534;DHT22;17318;52.390;9.754;2023-07-24T00:46:39;20.10;99.90
30534;DHT22;17318;52.390;9.754;2023-07-24T00:49:05;20.10;99.90
30534;DHT22;17318;52.390;9.754;2023-07-24T00:51:33;20.10;99.90
30534;DHT22;17318;52.390;9.754;2023-07-24T00:54:01;20.20;99.90
30534;DHT22;17318;52.390;9.754;2023-07-24T00:56:27;20.20;99.90
30534;DHT22;17318;52.390;9.754;2023-07-24T00:58:54;20.20;99.90
30534;DHT22;17318;52.390;9.754;2023-07-24T01:01:21;20.10;99.90
30534;DHT22;17318;52.390;9.754;2023-07-24T01:03:47;20.10;99.90
30534;DHT22;17318;52.390;9.754;2023-07-24T01:06:14;20.20;99.90
30534;DHT22;17318;52.390;9.754;2023-07-24T01:08:40;20.10;99.90
30534;DHT22;17318;52.390;9.754;2023-07-24T01:11:30;20.10;99.90
30534;DHT22;17318;52.390;9.754;2023-07-24T01:14:02;20.10;99.90
30534;DHT22;17318;52.390;9.754;2023-07-24T01:16:42;20.10;99.90
30534;DHT22;17318;52.390;9.754;2023-07-24T01:19:20;20.10;99.90
30534;DHT22;17318;52.390;9.754;2023-07-24T01:22:04;20.10;99.90
30534;DHT22;17318;52.390;9.754;2023-07-24T01:24:42;20.10;99.90
30534;DHT22;17318;52.390;9.754;2023-07-24T01:27:20;20.10;99.90
30534;DHT22;17318;52.390;9.754;2023-07-24T01:29:45;20.10;99.90
30534;DHT22;17318;52.390;9.754;2023-07-24T01:32:11;20.10;99.90
30534;DHT22;17318;52.390;9.754;2023-07-24T01:34:37;20.10;99.90
30534;DHT22;17318;52.390;9.754;2023-07-24T01:37:03;20.10;99.90
30534;DHT22;17318;52.390;9.754;2023-07-24T01:39:28;20.10;99.90
30534;DHT22;17318;52.390;9.754;2023-07-24T01:41:54;20.10;99.90
30534;DHT22;17318;52.390;9.754;2023-07-24T01:44:20;20.10;99.90
30534;DHT22;17318;52.390;9.754;2023-07-24T01:46:46;20.10;99.90
30534;DHT22;17318;52.390;9.754;2023-07-24T01:49:12;20.10;99.90
30534;DHT22;17318;52.390;9.754;2023-07-24T01:51:37;20.10;99.90
30534;DHT22;17318;52.390;9.754;2023-07-24T01:54:03;20.10;99.90
30534;DHT22;17318;52.390;9.754;2023-07-24T01:56:28;20.10;99.90
30534;DHT22;17318;52.390;9.754;2023-07-24T01:58:54;20.10;99.90
30534;DHT22;17318;52.390;9.754;2023-07-24T02:01:19;20.10;99.90
30534;DHT22;17318;52.390;9.754;2023-07-24T02:03:45;20.10;99.90
30534;DHT22;17318;52.390;9.754;2023-07-24T02:06:11;20.20;99.90
30534;DHT22;17318;52.390;9.754;2023-07-24T02:08:36;20.10;99.90
30534;DHT22;17318;52.390;9.754;2023-07-24T02:11:02;20.10;99.90
30534;DHT22;17318;52.390;9.754;2023-07-24T02:13:28;20.10;99.90
30534;DHT22;17318;52.390;9.754;2023-07-24T02:15:53;20.10;99.90
30534;DHT22;17318;52.390;9.754;2023-07-24T02:18:19;20.10;99.90
30534;DHT22;17318;52.390;9.754;2023-07-24T02:20:51;20.10;99.90
30534;DHT22;17318;52.390;9.754;2023-07-24T02:23:17;20.00;99.90
30534;DHT22;17318;52.390;9.754;2023-07-24T02:25:42;20.00;99.90
30534;DHT22;17318;52.390;9.754;2023-07-24T02:28:08;20.00;99.90
30534;DHT22;17318;52.390;9.754;2023-07-24T02:30:38;20.00;99.90
30534;DHT22;17318;52.390;9.754;2023-07-24T02:33:03;20.00;99.90
30534;DHT22;17318;52.390;9.754;2023-07-24T02:35:29;20.00;99.90
30534;DHT22;17318;52.390;9.754;2023-07-24T02:37:55;20.00;99.90
30534;DHT22;17318;52.390;9.754;2023-07-24T02:40:20;20.00;99.90
30534;DHT22;17318;52.390;9.754;2023-07-24T02:42:46;20.00;99.90
30534;DHT22;17318;52.390;9.754;2023-07-24T02:45:11;20.00;99.90
30534;DHT22;17318;52.390;9.754;2023-07-24T02:47:37;19.90;99.90
30534;DHT22;17318;52.390;9.754;2023-07-24T02:50:03;20.00;99.90
30534;DHT22;17318;52.390;9.754;2023-07-24T02:52:29;19.90;99.90
30534;DHT22;17318;52.390;9.754;2023-07-24T02:54:55;20.00;99.90
30534;DHT22;17318;52.390;9.754;2023-07-24T02:57:20;19.90;99.90
30534;DHT22;17318;52.390;9.754;2023-07-24T02:59:46;20.00;99.90
30534;DHT22;17318;52.390;9.754;2023-07-24T03:02:12;19.90;99.90
30534;DHT22;17318;52.390;9.754;2023-07-24T03:04:37;20.00;99.90
30534;DHT22;17318;52.390;9.754;2023-07-24T03:07:03;20.00;99.90
30534;DHT22;17318;52.390;9.754;2023-07-24T03:09:29;20.00;99.90
30534;DHT22;17318;52.390;9.754;2023-07-24T03:11:54;20.00;99.90
30534;DHT22;17318;52.390;9.754;2023-07-24T03:14:20;20.00;99.90
30534;DHT22;17318;52.390;9.754;2023-07-24T03:16:46;20.10;99.90
30534;DHT22;17318;52.390;9.754;2023-07-24T03:19:11;20.00;99.90
30534;DHT22;17318;52.390;9.754;2023-07-24T03:21:37;20.00;99.90
30534;DHT22;17318;52.390;9.754;2023-07-24T03:24:03;20.10;99.90
30534;DHT22;17318;52.390;9.754;2023-07-24T03:26:28;20.10;99.90
30534;DHT22;17318;52.390;9.754;2023-07-24T03:28:54;20.00;99.90
30534;DHT22;17318;52.390;9.754;2023-07-24T03:31:20;20.00;99.90
30534;DHT22;17318;52.390;9.754;2023-07-24T03:33:45;20.10;99.90
30534;DHT22;17318;52.390;9.754;2023-07-24T03:36:11;20.10;99.90
30534;DHT22;17318;52.390;9.754;2023-07-24T03:38:36;20.00;99.90
30534;DHT22;17318;52.390;9.754;2023-07-24T03:41:02;20.00;99.90
30534;DHT22;17318;52.390;9.754;2023-07-24T03:43:28;20.00;99.90
30534;DHT22;17318;52.390;9.754;2023-07-24T03:45:53;20.10;99.90
30534;DHT22;17318;52.390;9.754;2023-07-24T03:48:19;20.10;99.90
30534;DHT22;17318;52.390;9.754;2023-07-24T03:50:45;20.10;99.90
30534;DHT22;17318;52.390;9.754;2023-07-24T03:53:10;20.10;99.90
30534;DHT22;17318;52.390;9.754;2023-07-24T03:55:36;20.00;99.90
30534;DHT22;17318;52.390;9.754;2023-07-24T03:58:01;20.00;99.90
30534;DHT22;17318;52.390;9.754;2023-07-24T04:00:27;20.00;99.90
30534;DHT22;17318;52.390;9.754;2023-07-24T04:02:53;20.00;99.90
30534;DHT22;17318;52.390;9.754;2023-07-24T04:05:18;20.00;99.90
30534;DHT22;17318;52.390;9.754;2023-07-24T04:07:44;19.90;99.90
30534;DHT22;17318;52.390;9.754;2023-07-24T04:10:10;19.90;99.90
30534;DHT22;17318;52.390;9.754;2023-07-24T04:12:35;19.90;99.90
30534;DHT22;17318;52.390;9.754;2023-07-24T04:15:01;19.90;99.90
30534;DHT22;17318;52.390;9.754;2023-07-24T04:17:27;19.90;99.90
30534;DHT22;17318;52.390;9.754;2023-07-24T04:19:52;19.90;99.90
30534;DHT22;17318;52.390;9.754;2023-07-24T04:22:18;19.80;99.90
30534;DHT22;17318;52.390;9.754;2023-07-24T04:24:44;19.80;99.90
30534;DHT22;17318;52.390;9.754;2023-07-24T04:27:09;19.90;99.90
30534;DHT22;17318;52.390;9.754;2023-07-24T04:29:35;19.90;99.90
30534;DHT22;17318;52.390;9.754;2023-07-24T04:32:00;19.90;99.90
30534;DHT22;17318;52.390;9.754;2023-07-24T04:34:26;19.90;99.90
30534;DHT22;17318;52.390;9.754;2023-07-24T04:36:52;19.80;99.90
30534;DHT22;17318;52.390;9.754;2023-07-24T04:39:17;19.90;99.90
30534;DHT22;17318;52.390;9.754;2023-07-24T04:41:43;19.80;99.90
30534;DHT22;17318;52.390;9.754;2023-07-24T04:44:08;19.90;99.90
30534;DHT22;17318;52.390;9.754;2023-07-24T04:46:34;19.80;99.90
30534;DHT22;17318;52.390;9.754;2023-07-24T04:48:59;19.90;99.90
30534;DHT22;17318;52.390;9.754;2023-07-24T04:51:25;19.80;99.90
30534;DHT22;17318;52.390;9.754;2023-07-24T04:53:51;19.80;99.90
30534;DHT22;17318;52.390;9.754;2023-07-24T04:56:16;19.80;99.90
30534;DHT22;17318;52.390;9.754;2023-07-24T04:58:42;19.80;99.90
30534;DHT22;17318;52.390;9.754;2023-07-24T05:01:08;19.80;99.90
30534;DHT22;17318;52.390;9.754;2023-07-24T05:03:34;19.80;99.90
30534;DHT22;17318;52.390;9.754;2023-07-24T05:06:00;19.90;99.90
30534;DHT22;17318;52.390;9.754;2023-07-24T05:08:25;19.90;99.90
30534;DHT22;17318;52.390;9.754;2023-07-24T05:10:55;19.90;99.90
30534;DHT22;17318;52.390;9.754;2023-07-24T05:13:21;19.90;99.90
30534;DHT22;17318;52.390;9.754;2023-07-24T05:15:47;20.00;99.90
30534;DHT22;17318;52.390;9.754;2023-07-24T05:18:12;20.00;99.90
30534;DHT22;17318;52.390;9.754;2023-07-24T05:20:38;20.00;99.90
30534;DHT22;17318;52.390;9.754;2023-07-24T05:23:04;20.10;99.90
30534;DHT22;17318;52.390;9.754;2023-07-24T05:25:29;20.20;99.90
30534;DHT22;17318;52.390;9.754;2023-07-24T05:27:55;20.20;99.90
30534;DHT22;17318;52.390;9.754;2023-07-24T05:30:20;20.30;99.90
30534;DHT22;17318;52.390;9.754;2023-07-24T05:32:46;20.30;99.90
30534;DHT22;17318;52.390;9.754;2023-07-24T05:35:12;20.40;99.90
30534;DHT22;17318;52.390;9.754;2023-07-24T05:37:37;20.40;99.90
30534;DHT22;17318;52.390;9.754;2023-07-24T05:40:03;20.40;99.90
30534;DHT22;17318;52.390;9.754;2023-07-24T05:42:29;20.30;99.90
30534;DHT22;17318;52.390;9.754;2023-07-24T05:44:55;20.40;99.90
30534;DHT22;17318;52.390;9.754;2023-07-24T05:47:20;20.40;99.90
30534;DHT22;17318;52.390;9.754;2023-07-24T05:49:46;20.30;99.90
30534;DHT22;17318;52.390;9.754;2023-07-24T05:52:12;20.30;99.90
30534;DHT22;17318;52.390;9.754;2023-07-24T05:54:38;20.30;99.90
30534;DHT22;17318;52.390;9.754;2023-07-24T05:57:03;20.30;99.90
30534;DHT22;17318;52.390;9.754;2023-07-24T05:59:29;20.20;99.90
30534;DHT22;17318;52.390;9.754;2023-07-24T06:01:55;20.20;99.90
30534;DHT22;17318;52.390;9.754;2023-07-24T06:04:21;20.20;99.90
30534;DHT22;17318;52.390;9.754;2023-07-24T06:06:46;20.20;99.90
30534;DHT22;17318;52.390;9.754;2023-07-24T06:09:12;20.10;99.90
30534;DHT22;17318;52.390;9.754;2023-07-24T06:11:38;20.10;99.90
30534;DHT22;17318;52.390;9.754;2023-07-24T06:14:03;20.10;99.90
30534;DHT22;17318;52.390;9.754;2023-07-24T06:16:29;20.00;99.90
30534;DHT22;17318;52.390;9.754;2023-07-24T06:18:55;20.00;99.90
30534;DHT22;17318;52.390;9.754;2023-07-24T06:21:21;20.00;99.90
30534;DHT22;17318;52.390;9.754;2023-07-24T06:23:46;20.00;99.90
30534;DHT22;17318;52.390;9.754;2023-07-24T06:26:12;19.90;99.90
30534;DHT22;17318;52.390;9.754;2023-07-24T06:28:37;20.00;99.90
30534;DHT22;17318;52.390;9.754;2023-07-24T06:31:03;20.00;99.90
30534;DHT22;17318;52.390;9.754;2023-07-24T06:33:29;20.10;99.90
30534;DHT22;17318;52.390;9.754;2023-07-24T06:35:54;20.10;99.90
30534;DHT22;17318;52.390;9.754;2023-07-24T06:38:20;20.10;99.90
30534;DHT22;17318;52.390;9.754;2023-07-24T06:40:47;20.20;99.90
30534;DHT22;17318;52.390;9.754;2023-07-24T06:43:12;20.20;99.90
30534;DHT22;17318;52.390;9.754;2023-07-24T06:45:38;20.20;99.90
30534;DHT22;17318;52.390;9.754;2023-07-24T06:48:04;20.20;99.90
30534;DHT22;17318;52.390;9.754;2023-07-24T06:50:29;20.20;99.90
30534;DHT22;17318;52.390;9.754;2023-07-24T06:52:55;20.20;99.90
30534;DHT22;17318;52.390;9.754;2023-07-24T06:55:21;20.20;99.90
30534;DHT22;17318;52.390;9.754;2023-07-24T06:57:46;20.20;99.90
30534;DHT22;17318;52.390;9.754;2023-07-24T07:00:12;20.20;99.90
30534;DHT22;17318;52.390;9.754;2023-07-24T07:02:38;20.30;99.90
30534;DHT22;17318;52.390;9.754;2023-07-24T07:05:05;20.20;99.90
30534;DHT22;17318;52.390;9.754;2023-07-24T07:07:31;20.20;99.90
30534;DHT22;17318;52.390;9.754;2023-07-24T07:09:57;20.30;99.90
30534;DHT22;17318;52.390;9.754;2023-07-24T07:12:23;20.20;99.90
30534;DHT22;17318;52.390;9.754;2023-07-24T07:14:48;20.30;99.90
30534;DHT22;17318;52.390;9.754;2023-07-24T07:17:14;20.30;99.90
30534;DHT22;17318;52.390;9.754;2023-07-24T07:19:40;20.40;99.90
30534;DHT22;17318;52.390;9.754;2023-07-24T07:22:06;20.40;99.90
30534;DHT22;17318;52.390;9.754;2023-07-24T07:24:31;20.40;99.90
30534;DHT22;17318;52.390;9.754;2023-07-24T07:26:57;20.40;99.90
30534;DHT22;17318;52.390;9.754;2023-07-24T07:29:23;20.40;99.90
30534;DHT22;17318;52.390;9.754;2023-07-24T07:31:48;20.40;99.90
30534;DHT22;17318;52.390;9.754;2023-07-24T07:34:14;20.50;99.90
30534;DHT22;17318;52.390;9.754;2023-07-24T07:36:40;20.40;99.90
30534;DHT22;17318;52.390;9.754;2023-07-24T07:39:05;20.30;99.90
30534;DHT22;17318;52.390;9.754;2023-07-24T07:41:31;20.20;99.90
30534;DHT22;17318;52.390;9.754;2023-07-24T07:43:57;20.30;99.90
30534;DHT22;17318;52.390;9.754;2023-07-24T07:46:23;20.20;99.90
30534;DHT22;17318;52.390;9.754;2023-07-24T07:48:48;20.20;99.90
30534;DHT22;17318;52.390;9.754;2023-07-24T07:51:14;20.10;99.90
30534;DHT22;17318;52.390;9.754;2023-07-24T07:53:40;20.20;99.90
30534;DHT22;17318;52.390;9.754;2023-07-24T07:56:06;20.10;99.90
30534;DHT22;17318;52.390;9.754;2023-07-24T07:58:32;20.20;99.90
30534;DHT22;17318;52.390;9.754;2023-07-24T08:00:58;20.10;99.90
30534;DHT22;17318;52.390;9.754;2023-07-24T08:03:23;19.90;99.90
30534;DHT22;17318;52.390;9.754;2023-07-24T08:05:49;20.00;99.90
30534;DHT22;17318;52.390;9.754;2023-07-24T08:08:15;20.00;99.90
30534;DHT22;17318;52.390;9.754;2023-07-24T08:10:40;20.00;99.90
30534;DHT22;17318;52.390;9.754;2023-07-24T08:13:06;20.10;99.90
30534;DHT22;17318;52.390;9.754;2023-07-24T08:15:36;20.10;99.90
30534;DHT22;17318;52.390;9.754;2023-07-24T08:18:03;20.30;99.90
30534;DHT22;17318;52.390;9.754;2023-07-24T08:20:28;20.30;99.90
30534;DHT22;17318;52.390;9.754;2023-07-24T08:22:54;20.40;99.90
30534;DHT22;17318;52.390;9.754;2023-07-24T08:25:20;20.30;99.90
30534;DHT22;17318;52.390;9.754;2023-07-24T08:27:45;20.30;99.90
30534;DHT22;17318;52.390;9.754;2023-07-24T08:30:11;20.30;99.90
30534;DHT22;17318;52.390;9.754;2023-07-24T08:32:37;20.30;99.90
30534;DHT22;17318;52.390;9.754;2023-07-24T08:35:02;20.40;99.90
30534;DHT22;17318;52.390;9.754;2023-07-24T08:37:28;20.30;99.90
30534;DHT22;17318;52.390;9.754;2023-07-24T08:39:54;20.40;99.90
30534;DHT22;17318;52.390;9.754;2023-07-24T08:42:19;20.40;99.90
30534;DHT22;17318;52.390;9.754;2023-07-24T08:44:45;20.40;99.90
30534;DHT22;17318;52.390;9.754;2023-07-24T08:47:11;20.50;99.90
30534;DHT22;17318;52.390;9.754;2023-07-24T08:49:39;20.40;99.90
30534;DHT22;17318;52.390;9.754;2023-07-24T08:52:08;20.50;99.90
30534;DHT22;17318;52.390;9.754;2023-07-24T08:54:35;21.00;99.90
30534;DHT22;17318;52.390;9.754;2023-07-24T08:57:07;21.80;99.90
30534;DHT22;17318;52.390;9.754;2023-07-24T08:59:34;22.50;99.90
30534;DHT22;17318;52.390;9.754;2023-07-24T09:02:00;23.10;99.90
30534;DHT22;17318;52.390;9.754;2023-07-24T09:04:26;23.30;99.90
30534;DHT22;17318;52.390;9.754;2023-07-24T09:06:53;23.50;99.90
30534;DHT22;17318;52.390;9.754;2023-07-24T09:09:18;23.70;99.90
30534;DHT22;17318;52.390;9.754;2023-07-24T09:11:50;23.90;99.90
30534;DHT22;17318;52.390;9.754;2023-07-24T09:14:29;24.50;99.90
30534;DHT22;17318;52.390;9.754;2023-07-24T09:17:11;24.70;99.90
30534;DHT22;17318;52.390;9.754;2023-07-24T09:19:37;24.50;99.90
30534;DHT22;17318;52.390;9.754;2023-07-24T09:22:11;24.50;99.90
30534;DHT22;17318;52.390;9.754;2023-07-24T09:24:37;24.40;99.90
30534;DHT22;17318;52.390;9.754;2023-07-24T09:27:05;24.40;99.90
30534;DHT22;17318;52.390;9.754;2023-07-24T09:29:33;23.90;99.90
30534;DHT22;17318;52.390;9.754;2023-07-24T09:31:59;23.90;99.90
30534;DHT22;17318;52.390;9.754;2023-07-24T09:34:25;23.90;99.90
30534;DHT22;17318;52.390;9.754;2023-07-24T09:36:51;23.60;99.90
30534;DHT22;17318;52.390;9.754;2023-07-24T09:39:26;23.60;99.90
30534;DHT22;17318;52.390;9.754;2023-07-24T09:41:52;23.70;99.90
30534;DHT22;17318;52.390;9.754;2023-07-24T09:44:18;23.70;99.90
30534;DHT22;17318;52.390;9.754;2023-07-24T09:46:44;23.80;99.90
30534;DHT22;17318;52.390;9.754;2023-07-24T09:49:10;24.10;99.90
30534;DHT22;17318;52.390;9.754;2023-07-24T09:51:37;24.30;99.90
30534;DHT22;17318;52.390;9.754;2023-07-24T09:54:23;24.20;99.90
30534;DHT22;17318;52.390;9.754;2023-07-24T09:56:52;24.00;99.70
30534;DHT22;17318;52.390;9.754;2023-07-24T09:59:19;24.00;99.90
30534;DHT22;17318;52.390;9.754;2023-07-24T10:01:47;24.20;99.50
30534;DHT22;17318;52.390;9.754;2023-07-24T10:04:15;24.30;99.60
30534;DHT22;17318;52.390;9.754;2023-07-24T10:06:42;24.70;99.40
30534;DHT22;17318;52.390;9.754;2023-07-24T10:09:08;24.80;98.90
30534;DHT22;17318;52.390;9.754;2023-07-24T10:11:34;24.70;98.70
30534;DHT22;17318;52.390;9.754;2023-07-24T10:14:00;24.70;99.00
30534;DHT22;17318;52.390;9.754;2023-07-24T10:16:26;24.80;98.50
30534;DHT22;17318;52.390;9.754;2023-07-24T10:18:51;24.80;98.20
30534;DHT22;17318;52.390;9.754;2023-07-24T10:21:17;24.60;98.40
30534;DHT22;17318;52.390;9.754;2023-07-24T10:23:44;24.60;98.70
30534;DHT22;17318;52.390;9.754;2023-07-24T10:26:12;24.60;98.50
30534;DHT22;17318;52.390;9.754;2023-07-24T10:28:40;24.80;98.90
30534;DHT22;17318;52.390;9.754;2023-07-24T10:31:06;24.60;98.50
30534;DHT22;17318;52.390;9.754;2023-07-24T10:33:35;24.60;98.30
30534;DHT22;17318;52.390;9.754;2023-07-24T10:36:07;24.20;98.20
30534;DHT22;17318;52.390;9.754;2023-07-24T10:38:40;24.10;98.30
30534;DHT22;17318;52.390;9.754;2023-07-24T10:41:07;24.10;98.20
30534;DHT22;17318;52.390;9.754;2023-07-24T10:43:50;24.00;98.10
30534;DHT22;17318;52.390;9.754;2023-07-24T10:46:17;24.00;98.20
30534;DHT22;17318;52.390;9.754;2023-07-24T10:48:45;24.00;98.10
30534;DHT22;17318;52.390;9.754;2023-07-24T10:51:11;23.80;98.00
30534;DHT22;17318;52.390;9.754;2023-07-24T10:53:43;23.80;98.00
30534;DHT22;17318;52.390;9.754;2023-07-24T10:56:09;23.70;97.80
30534;DHT22;17318;52.390;9.754;2023-07-24T10:58:35;23.80;97.50
30534;DHT22;17318;52.390;9.754;2023-07-24T11:01:06;23.80;97.40
30534;DHT22;17318;52.390;9.754;2023-07-24T11:03:35;23.70;97.10
30534;DHT22;17318;52.390;9.754;2023-07-24T11:06:02;23.60;97.30
30534;DHT22;17318;52.390;9.754;2023-07-24T11:08:28;23.60;97.50
30534;DHT22;17318;52.390;9.754;2023-07-24T11:10:55;23.70;97.40
30534;DHT22;17318;52.390;9.754;2023-07-24T11:13:26;23.90;97.30
30534;DHT22;17318;52.390;9.754;2023-07-24T11:15:53;23.90;97.30
30534;DHT22;17318;52.390;9.754;2023-07-24T11:18:20;24.00;97.00
30534;DHT22;17318;52.390;9.754;2023-07-24T11:20:52;24.20;96.90
30534;DHT22;17318;52.390;9.754;2023-07-24T11:23:19;24.30;96.70
30534;DHT22;17318;52.390;9.754;2023-07-24T11:25:46;24.30;96.40
30534;DHT22;17318;52.390;9.754;2023-07-24T11:28:14;24.40;96.60
30534;DHT22;17318;52.390;9.754;2023-07-24T11:30:40;24.50;96.10
30534;DHT22;17318;52.390;9.754;2023-07-24T11:33:08;24.40;96.30
30534;DHT22;17318;52.390;9.754;2023-07-24T11:35:35;24.40;96.50
30534;DHT22;17318;52.390;9.754;2023-07-24T11:38:02;24.40;96.40
30534;DHT22;17318;52.390;9.754;2023-07-24T11:40:39;24.40;96.60
30534;DHT22;17318;52.390;9.754;2023-07-24T11:43:05;24.10;96.60
30534;DHT22;17318;52.390;9.754;2023-07-24T11:45:42;23.70;97.80
30534;DHT22;17318;52.390;9.754;2023-07-24T11:48:11;23.50;98.50
30534;DHT22;17318;52.390;9.754;2023-07-24T11:50:45;23.40;99.00
30534;DHT22;17318;52.390;9.754;2023-07-24T11:53:27;23.30;99.40
30534;DHT22;17318;52.390;9.754;2023-07-24T11:55:59;23.30;99.90
30534;DHT22;17318;52.390;9.754;2023-07-24T11:58:29;23.30;99.90
30534;DHT22;17318;52.390;9.754;2023-07-24T12:00:55;23.20;99.90
30534;DHT22;17318;52.390;9.754;2023-07-24T12:03:24;23.20;99.90
30534;DHT22;17318;52.390;9.754;2023-07-24T12:05:50;23.30;99.90
30534;DHT22;17318;52.390;9.754;2023-07-24T12:08:17;23.50;99.90
30534;DHT22;17318;52.390;9.754;2023-07-24T12:10:45;23.50;99.90
30534;DHT22;17318;52.390;9.754;2023-07-24T12:13:11;23.40;99.90
30534;DHT22;17318;52.390;9.754;2023-07-24T12:15:37;23.20;99.90
30534;DHT22;17318;52.390;9.754;2023-07-24T12:18:04;23.20;99.90
30534;DHT22;17318;52.390;9.754;2023-07-24T12:20:30;23.10;99.90
30534;DHT22;17318;52.390;9.754;2023-07-24T12:22:56;23.10;99.90
30534;DHT22;17318;52.390;9.754;2023-07-24T12:25:22;23.10;99.90
30534;DHT22;17318;52.390;9.754;2023-07-24T12:27:48;23.10;99.90
30534;DHT22;17318;52.390;9.754;2023-07-24T12:30:14;23.10;99.90
30534;DHT22;17318;52.390;9.754;2023-07-24T12:32:40;23.00;99.90
30534;DHT22;17318;52.390;9.754;2023-07-24T12:35:07;22.80;99.90
30534;DHT22;17318;52.390;9.754;2023-07-24T12:37:33;22.70;99.90
30534;DHT22;17318;52.390;9.754;2023-07-24T12:39:59;22.70;99.90
30534;DHT22;17318;52.390;9.754;2023-07-24T12:42:25;22.70;99.90
30534;DHT22;17318;52.390;9.754;2023-07-24T12:44:51;22.70;99.90
30534;DHT22;17318;52.390;9.754;2023-07-24T12:47:16;22.50;99.90
30534;DHT22;17318;52.390;9.754;2023-07-24T12:49:42;22.50;99.90
30534;DHT22;17318;52.390;9.754;2023-07-24T12:52:08;22.50;99.90
30534;DHT22;17318;52.390;9.754;2023-07-24T12:54:34;22.30;99.90
30534;DHT22;17318;52.390;9.754;2023-07-24T12:57:01;22.40;99.90
30534;DHT22;17318;52.390;9.754;2023-07-24T12:59:28;22.50;99.90
30534;DHT22;17318;52.390;9.754;2023-07-24T13:01:53;22.60;99.90
30534;DHT22;17318;52.390;9.754;2023-07-24T13:04:19;22.60;99.90
30534;DHT22;17318;52.390;9.754;2023-07-24T13:06:45;22.50;99.90
30534;DHT22;17318;52.390;9.754;2023-07-24T13:09:11;22.50;99.90
30534;DHT22;17318;52.390;9.754;2023-07-24T13:11:36;22.70;99.90
30534;DHT22;17318;52.390;9.754;2023-07-24T13:14:02;22.70;99.90
30534;DHT22;17318;52.390;9.754;2023-07-24T13:16:28;22.60;99.90
30534;DHT22;17318;52.390;9.754;2023-07-24T13:18:54;22.70;99.90
30534;DHT22;17318;52.390;9.754;2023-07-24T13:21:20;22.70;99.90
30534;DHT22;17318;52.390;9.754;2023-07-24T13:23:45;22.70;99.90
30534;DHT22;17318;52.390;9.754;2023-07-24T13:26:12;22.70;99.90
30534;DHT22;17318;52.390;9.754;2023-07-24T13:28:38;22.80;99.90
30534;DHT22;17318;52.390;9.754;2023-07-24T13:31:13;22.80;99.90
30534;DHT22;17318;52.390;9.754;2023-07-24T13:33:39;22.90;99.90
30534;DHT22;17318;52.390;9.754;2023-07-24T13:36:05;22.70;99.90
30534;DHT22;17318;52.390;9.754;2023-07-24T13:38:31;22.90;99.90
30534;DHT22;17318;52.390;9.754;2023-07-24T13:40:58;22.80;99.90
30534;DHT22;17318;52.390;9.754;2023-07-24T13:43:23;22.90;99.90
30534;DHT22;17318;52.390;9.754;2023-07-24T13:45:49;22.90;99.90
30534;DHT22;17318;52.390;9.754;2023-07-24T13:48:15;22.80;99.90
30534;DHT22;17318;52.390;9.754;2023-07-24T13:50:40;22.80;99.90
30534;DHT22;17318;52.390;9.754;2023-07-24T13:53:06;22.80;99.90
30534;DHT22;17318;52.390;9.754;2023-07-24T13:55:32;22.70;99.90
30534;DHT22;17318;52.390;9.754;2023-07-24T13:57:57;22.40;99.90
30534;DHT22;17318;52.390;9.754;2023-07-24T14:00:23;22.30;99.90
30534;DHT22;17318;52.390;9.754;2023-07-24T14:02:48;22.30;99.90
30534;DHT22;17318;52.390;9.754;2023-07-24T14:05:16;22.10;99.90
30534;DHT22;17318;52.390;9.754;2023-07-24T14:07:41;21.90;99.90
30534;DHT22;17318;52.390;9.754;2023-07-24T14:10:08;21.80;99.90
30534;DHT22;17318;52.390;9.754;2023-07-24T14:12:34;21.60;99.90
30534;DHT22;17318;52.390;9.754;2023-07-24T14:14:59;21.60;99.90
30534;DHT22;17318;52.390;9.754;2023-07-24T14:17:25;21.50;99.90
30534;DHT22;17318;52.390;9.754;2023-07-24T14:19:51;21.40;99.90
30534;DHT22;17318;52.390;9.754;2023-07-24T14:22:16;21.40;99.90
30534;DHT22;17318;52.390;9.754;2023-07-24T14:24:42;21.20;99.90
30534;DHT22;17318;52.390;9.754;2023-07-24T14:27:08;21.20;99.90
30534;DHT22;17318;52.390;9.754;2023-07-24T14:29:33;21.10;99.90
30534;DHT22;17318;52.390;9.754;2023-07-24T14:31:59;20.90;99.90
30534;DHT22;17318;52.390;9.754;2023-07-24T14:34:25;20.90;99.90
30534;DHT22;17318;52.390;9.754;2023-07-24T14:36:50;21.00;99.90
30534;DHT22;17318;52.390;9.754;2023-07-24T14:39:18;20.70;99.90
30534;DHT22;17318;52.390;9.754;2023-07-24T14:41:43;20.70;99.90
30534;DHT22;17318;52.390;9.754;2023-07-24T14:44:09;20.60;99.90
30534;DHT22;17318;52.390;9.754;2023-07-24T14:46:36;20.70;99.90
30534;DHT22;17318;52.390;9.754;2023-07-24T14:49:01;20.70;99.90
30534;DHT22;17318;52.390;9.754;2023-07-24T14:51:27;20.80;99.90
30534;DHT22;17318;52.390;9.754;2023-07-24T14:53:53;20.70;99.90
30534;DHT22;17318;52.390;9.754;2023-07-24T14:56:19;20.70;99.90
30534;DHT22;17318;52.390;9.754;2023-07-24T14:58:46;20.70;99.90
30534;DHT22;17318;52.390;9.754;2023-07-24T15:01:12;20.60;99.90
30534;DHT22;17318;52.390;9.754;2023-07-24T15:03:38;20.60;99.90
30534;DHT22;17318;52.390;9.754;2023-07-24T15:06:03;20.50;99.90
30534;DHT22;17318;52.390;9.754;2023-07-24T15:08:32;20.50;99.90
30534;DHT22;17318;52.390;9.754;2023-07-24T15:10:57;20.50;99.90
30534;DHT22;17318;52.390;9.754;2023-07-24T15:13:23;20.40;99.90
30534;DHT22;17318;52.390;9.754;2023-07-24T15:15:49;20.40;99.90
30534;DHT22;17318;52.390;9.754;2023-07-24T15:18:14;20.40;99.90
30534;DHT22;17318;52.390;9.754;2023-07-24T15:20:40;20.40;99.90
30534;DHT22;17318;52.390;9.754;2023-07-24T15:23:06;20.40;99.90
30534;DHT22;17318;52.390;9.754;2023-07-24T15:25:32;20.40;99.90